sensor_id;sensor_type;location;lat;lon;timestamp;P1;durP1;ratioP1;P2;durP2;ratioP2
82744;SDS011;72484;50.004;14.356;2024-03-07T00:01:17;25.00;;;17.60;;
82744;SDS011;72484;50.004;14.356;2024-03-07T00:04:54;22.70;;;16.30;;
82744;SDS011;72484;50.004;14.356;2024-03-07T00:08:15;22.50;;;15.90;;
82744;SDS011;72484;50.004;14.356;2024-03-07T00:12:33;24.60;;;16.30;;
82744;SDS011;72484;50.004;14.356;2024-03-07T00:15:52;23.20;;;15.80;;
82744;SDS011;72484;50.004;14.356;2024-03-07T00:19:54;22.10;;;14.80;;
82744;SDS011;72484;50.004;14.356;2024-03-07T00:24:14;22.90;;;15.00;;
82744;SDS011;72484;50.004;14.356;2024-03-07T00:27:51;21.40;;;14.70;;
82744;SDS011;72484;50.004;14.356;2024-03-07T00:31:11;24.30;;;16.30;;
82744;SDS011;72484;50.004;14.356;2024-03-07T00:35:29;22.50;;;14.70;;
82744;SDS011;72484;50.004;14.356;2024-03-07T00:38:49;23.70;;;15.80;;
82744;SDS011;72484;50.004;14.356;2024-03-07T00:43:07;23.00;;;15.90;;
82744;SDS011;72484;50.004;14.356;2024-03-07T00:46:27;22.40;;;15.70;;
82744;SDS011;72484;50.004;14.356;2024-03-07T00:50:47;23.50;;;15.80;;
82744;SDS011;72484;50.004;14.356;2024-03-07T00:54:08;24.50;;;16.20;;
82744;SDS011;72484;50.004;14.356;2024-03-07T00:58:27;22.70;;;14.60;;
82744;SDS011;72484;50.004;14.356;2024-03-07T01:02:05;22.00;;;15.10;;
82744;SDS011;72484;50.004;14.356;2024-03-07T01:05:24;21.20;;;14.60;;
82744;SDS011;72484;50.004;14.356;2024-03-07T01:09:41;22.70;;;15.00;;
82744;SDS011;72484;50.004;14.356;2024-03-07T01:13:19;23.30;;;15.40;;
82744;SDS011;72484;50.004;14.356;2024-03-07T01:16:40;21.40;;;15.10;;
82744;SDS011;72484;50.004;14.356;2024-03-07T01:21:00;23.30;;;16.00;;
82744;SDS011;72484;50.004;14.356;2024-03-07T01:24:20;22.50;;;15.00;;
82744;SDS011;72484;50.004;14.356;2024-03-07T01:28:20;22.20;;;14.80;;
82744;SDS011;72484;50.004;14.356;2024-03-07T01:32:37;23.80;;;15.10;;
82744;SDS011;72484;50.004;14.356;2024-03-07T01:36:16;23.90;;;16.20;;
82744;SDS011;72484;50.004;14.356;2024-03-07T01:39:35;21.40;;;14.30;;
82744;SDS011;72484;50.004;14.356;2024-03-07T01:43:54;22.10;;;15.10;;
82744;SDS011;72484;50.004;14.356;2024-03-07T01:47:31;21.90;;;15.10;;
82744;SDS011;72484;50.004;14.356;2024-03-07T01:50:50;21.70;;;15.20;;
82744;SDS011;72484;50.004;14.356;2024-03-07T01:54:52;22.70;;;15.80;;
82744;SDS011;72484;50.004;14.356;2024-03-07T01:58:53;22.60;;;15.90;;
82744;SDS011;72484;50.004;14.356;2024-03-07T02:02:54;23.30;;;15.80;;
82744;SDS011;72484;50.004;14.356;2024-03-07T02:06:53;20.80;;;14.30;;
82744;SDS011;72484;50.004;14.356;2024-03-07T02:11:13;22.90;;;15.40;;
82744;SDS011;72484;50.004;14.356;2024-03-07T02:14:50;22.40;;;15.40;;
82744;SDS011;72484;50.004;14.356;2024-03-07T02:18:10;22.20;;;15.40;;
82744;SDS011;72484;50.004;14.356;2024-03-07T02:22:27;22.40;;;15.40;;
82744;SDS011;72484;50.004;14.356;2024-03-07T02:26:05;23.10;;;15.20;;
82744;SDS011;72484;50.004;14.356;2024-03-07T02:29:43;21.60;;;13.90;;
82744;SDS011;72484;50.004;14.356;2024-03-07T02:33:21;20.00;;;14.00;;
82744;SDS011;72484;50.004;14.356;2024-03-07T02:36:59;24.00;;;16.10;;
82744;SDS011;72484;50.004;14.356;2024-03-07T02:40:37;22.10;;;14.80;;
82744;SDS011;72484;50.004;14.356;2024-03-07T02:43:58;22.40;;;14.70;;
82744;SDS011;72484;50.004;14.356;2024-03-07T02:48:18;22.00;;;15.40;;
82744;SDS011;72484;50.004;14.356;2024-03-07T02:51:37;22.70;;;15.10;;
82744;SDS011;72484;50.004;14.356;2024-03-07T02:55:37;21.00;;;15.10;;
82744;SDS011;72484;50.004;14.356;2024-03-07T02:59:37;21.80;;;14.80;;
82744;SDS011;72484;50.004;14.356;2024-03-07T03:03:38;21.90;;;14.50;;
82744;SDS011;72484;50.004;14.356;2024-03-07T03:07:40;21.50;;;14.30;;
82744;SDS011;72484;50.004;14.356;2024-03-07T03:11:44;20.70;;;14.50;;
82744;SDS011;72484;50.004;14.356;2024-03-07T03:16:03;21.30;;;14.90;;
82744;SDS011;72484;50.004;14.356;2024-03-07T03:19:39;21.50;;;14.80;;
82744;SDS011;72484;50.004;14.356;2024-03-07T03:22:59;20.50;;;14.70;;
82744;SDS011;72484;50.004;14.356;2024-03-07T03:27:01;20.50;;;14.80;;
82744;SDS011;72484;50.004;14.356;2024-03-07T03:31:04;22.30;;;15.60;;
82744;SDS011;72484;50.004;14.356;2024-03-07T03:35:06;22.00;;;15.10;;
82744;SDS011;72484;50.004;14.356;2024-03-07T03:39:27;25.00;;;16.40;;
82744;SDS011;72484;50.004;14.356;2024-03-07T03:43:04;22.30;;;15.50;;
82744;SDS011;72484;50.004;14.356;2024-03-07T03:46:24;21.90;;;15.80;;
82744;SDS011;72484;50.004;14.356;2024-03-07T03:50:23;22.70;;;15.70;;
82744;SDS011;72484;50.004;14.356;2024-03-07T03:54:22;21.20;;;15.10;;
82744;SDS011;72484;50.004;14.356;2024-03-07T03:58:22;20.80;;;14.20;;
82744;SDS011;72484;50.004;14.356;2024-03-07T04:02:40;20.00;;;13.80;;
82744;SDS011;72484;50.004;14.356;2024-03-07T04:06:17;20.50;;;14.30;;
82744;SDS011;72484;50.004;14.356;2024-03-07T04:09:54;21.00;;;14.10;;
82744;SDS011;72484;50.004;14.356;2024-03-07T04:13:32;20.80;;;14.10;;
82744;SDS011;72484;50.004;14.356;2024-03-07T04:17:10;19.40;;;13.60;;
82744;SDS011;72484;50.004;14.356;2024-03-07T04:20:30;20.10;;;14.20;;
82744;SDS011;72484;50.004;14.356;2024-03-07T04:24:28;19.00;;;13.90;;
82744;SDS011;72484;50.004;14.356;2024-03-07T04:28:28;20.40;;;13.70;;
82744;SDS011;72484;50.004;14.356;2024-03-07T04:32:45;19.90;;;13.50;;
82744;SDS011;72484;50.004;14.356;2024-03-07T04:36:23;21.40;;;14.20;;
82744;SDS011;72484;50.004;14.356;2024-03-07T04:39:42;22.20;;;15.20;;
82744;SDS011;72484;50.004;14.356;2024-03-07T04:43:58;21.00;;;13.60;;
82744;SDS011;72484;50.004;14.356;2024-03-07T04:47:19;19.90;;;13.90;;
82744;SDS011;72484;50.004;14.356;2024-03-07T04:51:37;19.40;;;13.30;;
82744;SDS011;72484;50.004;14.356;2024-03-07T04:55:15;19.70;;;13.70;;
82744;SDS011;72484;50.004;14.356;2024-03-07T04:58:34;21.80;;;14.10;;
82744;SDS011;72484;50.004;14.356;2024-03-07T05:02:53;19.60;;;13.00;;
82744;SDS011;72484;50.004;14.356;2024-03-07T05:06:12;20.00;;;13.50;;
82744;SDS011;72484;50.004;14.356;2024-03-07T05:10:13;18.80;;;12.50;;
82744;SDS011;72484;50.004;14.356;2024-03-07T05:14:14;19.90;;;13.40;;
82744;SDS011;72484;50.004;14.356;2024-03-07T05:18:31;19.80;;;12.70;;
82744;SDS011;72484;50.004;14.356;2024-03-07T05:21:52;20.30;;;12.90;;
82744;SDS011;72484;50.004;14.356;2024-03-07T05:25:51;20.40;;;13.60;;
82744;SDS011;72484;50.004;14.356;2024-03-07T05:29:49;20.20;;;12.60;;
82744;SDS011;72484;50.004;14.356;2024-03-07T05:34:08;20.20;;;12.80;;
82744;SDS011;72484;50.004;14.356;2024-03-07T05:37:45;21.00;;;13.00;;
82744;SDS011;72484;50.004;14.356;2024-03-07T05:41:23;19.90;;;12.80;;
82744;SDS011;72484;50.004;14.356;2024-03-07T05:45:00;21.50;;;12.80;;
82744;SDS011;72484;50.004;14.356;2024-03-07T05:48:38;17.40;;;11.80;;
82744;SDS011;72484;50.004;14.356;2024-03-07T05:51:58;18.20;;;12.10;;
82744;SDS011;72484;50.004;14.356;2024-03-07T05:56:16;18.90;;;12.30;;
82744;SDS011;72484;50.004;14.356;2024-03-07T05:59:53;19.60;;;12.60;;
82744;SDS011;72484;50.004;14.356;2024-03-07T06:03:30;19.00;;;12.80;;
82744;SDS011;72484;50.004;14.356;2024-03-07T06:07:09;19.80;;;12.60;;
82744;SDS011;72484;50.004;14.356;2024-03-07T06:10:28;22.10;;;12.20;;
82744;SDS011;72484;50.004;14.356;2024-03-07T06:14:27;20.60;;;12.40;;
82744;SDS011;72484;50.004;14.356;2024-03-07T06:18:27;19.40;;;11.90;;
82744;SDS011;72484;50.004;14.356;2024-03-07T06:22:47;21.00;;;14.10;;
82744;SDS011;72484;50.004;14.356;2024-03-07T06:26:26;20.50;;;12.10;;
82744;SDS011;72484;50.004;14.356;2024-03-07T06:30:02;21.10;;;13.00;;
82744;SDS011;72484;50.004;14.356;2024-03-07T06:33:22;21.70;;;14.30;;
82744;SDS011;72484;50.004;14.356;2024-03-07T06:37:22;22.90;;;14.40;;
82744;SDS011;72484;50.004;14.356;2024-03-07T06:41:38;21.90;;;14.20;;
82744;SDS011;72484;50.004;14.356;2024-03-07T06:45:18;23.60;;;15.60;;
82744;SDS011;72484;50.004;14.356;2024-03-07T06:48:54;22.80;;;15.00;;
82744;SDS011;72484;50.004;14.356;2024-03-07T06:52:32;22.60;;;14.90;;
82744;SDS011;72484;50.004;14.356;2024-03-07T06:56:10;22.60;;;13.70;;
82744;SDS011;72484;50.004;14.356;2024-03-07T06:59:30;24.70;;;14.50;;
82744;SDS011;72484;50.004;14.356;2024-03-07T07:03:51;23.60;;;14.10;;
82744;SDS011;72484;50.004;14.356;2024-03-07T07:07:09;22.20;;;14.70;;
82744;SDS011;72484;50.004;14.356;2024-03-07T07:11:28;23.20;;;13.80;;
82744;SDS011;72484;50.004;14.356;2024-03-07T07:15:07;21.00;;;13.40;;
82744;SDS011;72484;50.004;14.356;2024-03-07T07:18:44;21.90;;;14.00;;
82744;SDS011;72484;50.004;14.356;2024-03-07T07:22:21;21.60;;;13.60;;
82744;SDS011;72484;50.004;14.356;2024-03-07T07:25:40;22.60;;;14.80;;
82744;SDS011;72484;50.004;14.356;2024-03-07T07:29:58;23.10;;;14.30;;
82744;SDS011;72484;50.004;14.356;2024-03-07T07:33:18;20.60;;;13.20;;
82744;SDS011;72484;50.004;14.356;2024-03-07T07:37:18;22.30;;;13.80;;
82744;SDS011;72484;50.004;14.356;2024-03-07T07:41:19;23.30;;;14.10;;
82744;SDS011;72484;50.004;14.356;2024-03-07T07:45:19;22.40;;;13.00;;
82744;SDS011;72484;50.004;14.356;2024-03-07T07:49:39;22.20;;;13.90;;
82744;SDS011;72484;50.004;14.356;2024-03-07T07:53:17;23.70;;;14.10;;
82744;SDS011;72484;50.004;14.356;2024-03-07T07:56:55;22.50;;;14.80;;
82744;SDS011;72484;50.004;14.356;2024-03-07T08:00:32;21.70;;;14.30;;
82744;SDS011;72484;50.004;14.356;2024-03-07T08:03:51;22.00;;;13.00;;
82744;SDS011;72484;50.004;14.356;2024-03-07T08:07:51;23.90;;;13.50;;
82744;SDS011;72484;50.004;14.356;2024-03-07T08:12:11;22.40;;;13.90;;
82744;SDS011;72484;50.004;14.356;2024-03-07T08:15:48;20.50;;;13.20;;
82744;SDS011;72484;50.004;14.356;2024-03-07T08:19:08;20.00;;;13.40;;
82744;SDS011;72484;50.004;14.356;2024-03-07T08:23:07;21.80;;;13.70;;
82744;SDS011;72484;50.004;14.356;2024-03-07T08:27:06;20.70;;;13.80;;
82744;SDS011;72484;50.004;14.356;2024-03-07T08:31:24;21.10;;;13.40;;
82744;SDS011;72484;50.004;14.356;2024-03-07T08:34:47;23.00;;;13.60;;
82744;SDS011;72484;50.004;14.356;2024-03-07T08:38:46;21.60;;;14.00;;
82744;SDS011;72484;50.004;14.356;2024-03-07T08:42:48;22.00;;;14.60;;
82744;SDS011;72484;50.004;14.356;2024-03-07T08:46:47;22.00;;;14.30;;
82744;SDS011;72484;50.004;14.356;2024-03-07T08:51:06;23.50;;;15.20;;
82744;SDS011;72484;50.004;14.356;2024-03-07T08:54:26;23.20;;;14.70;;
82744;SDS011;72484;50.004;14.356;2024-03-07T08:58:45;25.30;;;15.30;;
82744;SDS011;72484;50.004;14.356;2024-03-07T09:02:22;22.70;;;14.70;;
82744;SDS011;72484;50.004;14.356;2024-03-07T09:05:59;22.80;;;15.20;;
82744;SDS011;72484;50.004;14.356;2024-03-07T09:09:38;22.30;;;15.00;;
82744;SDS011;72484;50.004;14.356;2024-03-07T09:13:15;23.70;;;15.30;;
82744;SDS011;72484;50.004;14.356;2024-03-07T09:16:34;24.80;;;15.50;;
82744;SDS011;72484;50.004;14.356;2024-03-07T09:20:51;24.60;;;15.90;;
82744;SDS011;72484;50.004;14.356;2024-03-07T09:24:11;23.70;;;15.50;;
82744;SDS011;72484;50.004;14.356;2024-03-07T09:28:28;24.90;;;15.90;;
82744;SDS011;72484;50.004;14.356;2024-03-07T09:31:50;24.60;;;15.40;;
82744;SDS011;72484;50.004;14.356;2024-03-07T09:36:07;24.10;;;15.70;;
82744;SDS011;72484;50.004;14.356;2024-03-07T09:39:44;25.40;;;16.00;;
82744;SDS011;72484;50.004;14.356;2024-03-07T09:43:22;24.10;;;16.10;;
82744;SDS011;72484;50.004;14.356;2024-03-07T09:47:00;22.50;;;15.40;;
82744;SDS011;72484;50.004;14.356;2024-03-07T09:50:38;22.10;;;15.40;;
82744;SDS011;72484;50.004;14.356;2024-03-07T09:53:57;23.50;;;15.90;;
82744;SDS011;72484;50.004;14.356;2024-03-07T09:57:57;26.30;;;16.40;;
82744;SDS011;72484;50.004;14.356;2024-03-07T10:02:15;22.80;;;16.00;;
82744;SDS011;72484;50.004;14.356;2024-03-07T10:05:35;21.60;;;15.90;;
82744;SDS011;72484;50.004;14.356;2024-03-07T10:09:53;24.00;;;16.10;;
82744;SDS011;72484;50.004;14.356;2024-03-07T10:13:31;23.20;;;16.30;;
82744;SDS011;72484;50.004;14.356;2024-03-07T10:16:50;23.70;;;15.80;;
82744;SDS011;72484;50.004;14.356;2024-03-07T10:21:12;23.30;;;16.60;;
82744;SDS011;72484;50.004;14.356;2024-03-07T10:24:31;24.40;;;16.20;;
82744;SDS011;72484;50.004;14.356;2024-03-07T10:28:30;23.10;;;15.60;;
82744;SDS011;72484;50.004;14.356;2024-03-07T10:32:50;23.90;;;16.00;;
82744;SDS011;72484;50.004;14.356;2024-03-07T10:36:25;22.80;;;15.40;;
82744;SDS011;72484;50.004;14.356;2024-03-07T10:40:04;24.80;;;15.50;;
82744;SDS011;72484;50.004;14.356;2024-03-07T10:43:41;22.60;;;15.30;;
82744;SDS011;72484;50.004;14.356;2024-03-07T10:47:00;22.20;;;15.20;;
82744;SDS011;72484;50.004;14.356;2024-03-07T10:51:20;22.10;;;15.30;;
82744;SDS011;72484;50.004;14.356;2024-03-07T10:54:39;24.10;;;15.00;;
82744;SDS011;72484;50.004;14.356;2024-03-07T10:59:15;21.90;;;15.00;;
82744;SDS011;72484;50.004;14.356;2024-03-07T11:02:50;22.10;;;14.80;;
82744;SDS011;72484;50.004;14.356;2024-03-07T11:06:10;23.00;;;14.70;;
82744;SDS011;72484;50.004;14.356;2024-03-07T11:10:12;22.10;;;15.40;;
82744;SDS011;72484;50.004;14.356;2024-03-07T11:14:13;24.30;;;15.60;;
82744;SDS011;72484;50.004;14.356;2024-03-07T11:18:30;21.40;;;13.90;;
82744;SDS011;72484;50.004;14.356;2024-03-07T11:22:08;22.30;;;14.40;;
82744;SDS011;72484;50.004;14.356;2024-03-07T11:25:46;21.30;;;14.80;;
82744;SDS011;72484;50.004;14.356;2024-03-07T11:34:14;21.00;;;13.60;;
82744;SDS011;72484;50.004;14.356;2024-03-07T11:37:40;21.40;;;13.50;;
82744;SDS011;72484;50.004;14.356;2024-03-07T11:41:00;20.80;;;14.30;;
82744;SDS011;72484;50.004;14.356;2024-03-07T11:45:01;21.40;;;14.20;;
82744;SDS011;72484;50.004;14.356;2024-03-07T11:49:18;22.10;;;14.00;;
82744;SDS011;72484;50.004;14.356;2024-03-07T11:52:56;20.60;;;14.20;;
82744;SDS011;72484;50.004;14.356;2024-03-07T11:56:34;20.30;;;13.70;;
82744;SDS011;72484;50.004;14.356;2024-03-07T12:00:13;21.40;;;14.30;;
82744;SDS011;72484;50.004;14.356;2024-03-07T12:03:50;20.50;;;14.10;;
82744;SDS011;72484;50.004;14.356;2024-03-07T12:07:27;20.80;;;13.10;;
82744;SDS011;72484;50.004;14.356;2024-03-07T12:11:05;19.80;;;13.20;;
82744;SDS011;72484;50.004;14.356;2024-03-07T12:14:25;20.60;;;13.20;;
82744;SDS011;72484;50.004;14.356;2024-03-07T12:18:44;21.00;;;13.80;;
82744;SDS011;72484;50.004;14.356;2024-03-07T12:22:21;20.70;;;13.40;;
82744;SDS011;72484;50.004;14.356;2024-03-07T12:25:40;20.90;;;13.60;;
82744;SDS011;72484;50.004;14.356;2024-03-07T12:29:41;19.60;;;13.50;;
82744;SDS011;72484;50.004;14.356;2024-03-07T12:33:44;21.10;;;13.40;;
82744;SDS011;72484;50.004;14.356;2024-03-07T12:37:46;20.40;;;13.50;;
82744;SDS011;72484;50.004;14.356;2024-03-07T12:42:04;19.70;;;13.40;;
82744;SDS011;72484;50.004;14.356;2024-03-07T12:45:43;19.20;;;13.30;;
82744;SDS011;72484;50.004;14.356;2024-03-07T12:49:18;20.40;;;12.90;;
82744;SDS011;72484;50.004;14.356;2024-03-07T12:52:56;18.80;;;12.50;;
82744;SDS011;72484;50.004;14.356;2024-03-07T12:56:34;19.40;;;12.60;;
82744;SDS011;72484;50.004;14.356;2024-03-07T12:59:54;18.70;;;12.30;;
82744;SDS011;72484;50.004;14.356;2024-03-07T13:03:52;19.70;;;12.30;;
82744;SDS011;72484;50.004;14.356;2024-03-07T13:08:09;19.50;;;13.10;;
82744;SDS011;72484;50.004;14.356;2024-03-07T13:11:28;18.30;;;12.80;;
82744;SDS011;72484;50.004;14.356;2024-03-07T13:15:45;20.90;;;13.00;;
82744;SDS011;72484;50.004;14.356;2024-03-07T13:19:23;18.10;;;12.10;;
82744;SDS011;72484;50.004;14.356;2024-03-07T13:23:01;17.70;;;11.50;;
82744;SDS011;72484;50.004;14.356;2024-03-07T13:26:21;18.80;;;11.70;;
82744;SDS011;72484;50.004;14.356;2024-03-07T13:30:21;19.70;;;12.70;;
82744;SDS011;72484;50.004;14.356;2024-03-07T13:34:22;18.10;;;12.20;;
82744;SDS011;72484;50.004;14.356;2024-03-07T13:38:21;18.20;;;12.60;;
82744;SDS011;72484;50.004;14.356;2024-03-07T13:42:39;20.30;;;12.70;;
82744;SDS011;72484;50.004;14.356;2024-03-07T13:46:16;20.00;;;12.60;;
82744;SDS011;72484;50.004;14.356;2024-03-07T13:49:36;18.80;;;12.30;;
82744;SDS011;72484;50.004;14.356;2024-03-07T13:53:56;19.30;;;11.50;;
82744;SDS011;72484;50.004;14.356;2024-03-07T13:57:19;18.30;;;11.40;;
82744;SDS011;72484;50.004;14.356;2024-03-07T14:01:30;18.30;;;11.90;;
82744;SDS011;72484;50.004;14.356;2024-03-07T14:06:03;17.40;;;11.80;;
82744;SDS011;72484;50.004;14.356;2024-03-07T14:09:43;17.50;;;11.50;;
82744;SDS011;72484;50.004;14.356;2024-03-07T14:17:20;18.00;;;12.20;;
82744;SDS011;72484;50.004;14.356;2024-03-07T14:20:59;19.80;;;13.00;;
82744;SDS011;72484;50.004;14.356;2024-03-07T14:24:31;17.90;;;12.60;;
82744;SDS011;72484;50.004;14.356;2024-03-07T14:28:59;17.50;;;12.40;;
82744;SDS011;72484;50.004;14.356;2024-03-07T14:33:11;18.40;;;12.40;;
82744;SDS011;72484;50.004;14.356;2024-03-07T14:37:19;19.10;;;12.20;;
82744;SDS011;72484;50.004;14.356;2024-03-07T14:41:45;18.50;;;12.40;;
82744;SDS011;72484;50.004;14.356;2024-03-07T14:44:59;19.00;;;12.60;;
82744;SDS011;72484;50.004;14.356;2024-03-07T14:49:04;18.60;;;12.40;;
82744;SDS011;72484;50.004;14.356;2024-03-07T14:53:21;17.20;;;11.30;;
82744;SDS011;72484;50.004;14.356;2024-03-07T14:57:00;17.50;;;11.90;;
82744;SDS011;72484;50.004;14.356;2024-03-07T15:00:38;16.90;;;11.10;;
82744;SDS011;72484;50.004;14.356;2024-03-07T15:03:58;18.80;;;11.20;;
82744;SDS011;72484;50.004;14.356;2024-03-07T15:08:20;17.60;;;11.40;;
82744;SDS011;72484;50.004;14.356;2024-03-07T15:11:40;16.10;;;11.00;;
82744;SDS011;72484;50.004;14.356;2024-03-07T15:15:39;17.20;;;11.20;;
82744;SDS011;72484;50.004;14.356;2024-03-07T15:19:40;17.60;;;10.90;;
82744;SDS011;72484;50.004;14.356;2024-03-07T15:23:58;16.50;;;11.00;;
82744;SDS011;72484;50.004;14.356;2024-03-07T15:27:35;16.90;;;11.00;;
82744;SDS011;72484;50.004;14.356;2024-03-07T15:30:55;18.90;;;10.30;;
82744;SDS011;72484;50.004;14.356;2024-03-07T15:35:20;16.40;;;10.60;;
82744;SDS011;72484;50.004;14.356;2024-03-07T15:38:57;16.90;;;10.70;;
82744;SDS011;72484;50.004;14.356;2024-03-07T15:42:17;17.70;;;11.10;;
82744;SDS011;72484;50.004;14.356;2024-03-07T15:46:34;17.70;;;10.80;;
82744;SDS011;72484;50.004;14.356;2024-03-07T15:49:55;17.60;;;10.90;;
82744;SDS011;72484;50.004;14.356;2024-03-07T15:53:55;16.30;;;11.10;;
82744;SDS011;72484;50.004;14.356;2024-03-07T15:57:54;18.50;;;10.90;;
82744;SDS011;72484;50.004;14.356;2024-03-07T16:02:18;17.10;;;10.80;;
82744;SDS011;72484;50.004;14.356;2024-03-07T16:05:55;17.70;;;11.60;;
82744;SDS011;72484;50.004;14.356;2024-03-07T16:09:33;16.50;;;11.00;;
82744;SDS011;72484;50.004;14.356;2024-03-07T16:12:53;16.40;;;11.00;;
82744;SDS011;72484;50.004;14.356;2024-03-07T16:17:11;16.60;;;10.20;;
82744;SDS011;72484;50.004;14.356;2024-03-07T16:20:31;15.70;;;10.40;;
82744;SDS011;72484;50.004;14.356;2024-03-07T16:24:30;16.00;;;10.90;;
82744;SDS011;72484;50.004;14.356;2024-03-07T16:28:34;18.40;;;12.70;;
82744;SDS011;72484;50.004;14.356;2024-03-07T16:32:35;19.20;;;12.90;;
82744;SDS011;72484;50.004;14.356;2024-03-07T16:36:53;19.40;;;13.00;;
82744;SDS011;72484;50.004;14.356;2024-03-07T16:40:14;18.80;;;12.90;;
82744;SDS011;72484;50.004;14.356;2024-03-07T16:44:18;18.10;;;13.30;;
82744;SDS011;72484;50.004;14.356;2024-03-07T16:48:19;20.20;;;13.90;;
82744;SDS011;72484;50.004;14.356;2024-03-07T16:52:38;20.20;;;14.00;;
82744;SDS011;72484;50.004;14.356;2024-03-07T16:56:16;21.10;;;14.70;;
82744;SDS011;72484;50.004;14.356;2024-03-07T16:59:37;22.70;;;14.80;;
82744;SDS011;72484;50.004;14.356;2024-03-07T17:03:54;22.20;;;15.10;;
82744;SDS011;72484;50.004;14.356;2024-03-07T17:07:31;21.60;;;15.30;;
82744;SDS011;72484;50.004;14.356;2024-03-07T17:11:10;21.70;;;15.10;;
82744;SDS011;72484;50.004;14.356;2024-03-07T17:14:29;22.40;;;15.60;;
82744;SDS011;72484;50.004;14.356;2024-03-07T17:18:49;20.80;;;15.30;;
82744;SDS011;72484;50.004;14.356;2024-03-07T17:22:08;20.90;;;15.60;;
82744;SDS011;72484;50.004;14.356;2024-03-07T17:26:06;21.90;;;15.80;;
82744;SDS011;72484;50.004;14.356;2024-03-07T17:30:05;22.70;;;15.70;;
82744;SDS011;72484;50.004;14.356;2024-03-07T17:34:23;23.30;;;15.70;;
82744;SDS011;72484;50.004;14.356;2024-03-07T17:38:00;24.70;;;16.40;;
82744;SDS011;72484;50.004;14.356;2024-03-07T17:41:20;24.10;;;17.10;;
82744;SDS011;72484;50.004;14.356;2024-03-07T17:45:38;22.20;;;16.10;;
82744;SDS011;72484;50.004;14.356;2024-03-07T17:48:59;23.60;;;16.00;;
82744;SDS011;72484;50.004;14.356;2024-03-07T17:53:18;21.00;;;14.70;;
82744;SDS011;72484;50.004;14.356;2024-03-07T17:56:37;22.90;;;15.50;;
82744;SDS011;72484;50.004;14.356;2024-03-07T18:00:58;21.50;;;15.60;;
82744;SDS011;72484;50.004;14.356;2024-03-07T18:04:17;23.40;;;15.80;;
82744;SDS011;72484;50.004;14.356;2024-03-07T18:08:37;22.10;;;15.70;;
82744;SDS011;72484;50.004;14.356;2024-03-07T18:11:57;22.30;;;15.40;;
82744;SDS011;72484;50.004;14.356;2024-03-07T18:15:58;23.20;;;16.40;;
82744;SDS011;72484;50.004;14.356;2024-03-07T18:20:17;21.80;;;15.50;;
82744;SDS011;72484;50.004;14.356;2024-03-07T18:23:55;24.40;;;16.50;;
82744;SDS011;72484;50.004;14.356;2024-03-07T18:27:32;21.50;;;15.20;;
82744;SDS011;72484;50.004;14.356;2024-03-07T18:30:52;20.70;;;14.70;;
82744;SDS011;72484;50.004;14.356;2024-03-07T18:34:53;22.60;;;15.00;;
82744;SDS011;72484;50.004;14.356;2024-03-07T18:39:10;22.20;;;14.60;;
82744;SDS011;72484;50.004;14.356;2024-03-07T18:42:29;22.50;;;15.70;;
82744;SDS011;72484;50.004;14.356;2024-03-07T18:46:28;22.50;;;16.10;;
82744;SDS011;72484;50.004;14.356;2024-03-07T18:50:27;22.80;;;15.90;;
82744;SDS011;72484;50.004;14.356;2024-03-07T18:54:25;22.70;;;16.60;;
82744;SDS011;72484;50.004;14.356;2024-03-07T18:58:24;24.80;;;17.10;;
82744;SDS011;72484;50.004;14.356;2024-03-07T19:02:42;25.00;;;16.60;;
82744;SDS011;72484;50.004;14.356;2024-03-07T19:06:20;25.20;;;16.30;;
82744;SDS011;72484;50.004;14.356;2024-03-07T19:09:59;25.60;;;17.40;;
82744;SDS011;72484;50.004;14.356;2024-03-07T19:13:35;25.80;;;16.90;;
82744;SDS011;72484;50.004;14.356;2024-03-07T19:17:13;24.40;;;17.30;;
82744;SDS011;72484;50.004;14.356;2024-03-07T19:20:33;25.40;;;17.70;;
82744;SDS011;72484;50.004;14.356;2024-03-07T19:24:50;23.90;;;16.80;;
82744;SDS011;72484;50.004;14.356;2024-03-07T19:28:28;23.80;;;16.90;;
82744;SDS011;72484;50.004;14.356;2024-03-07T19:31:48;23.80;;;17.20;;
82744;SDS011;72484;50.004;14.356;2024-03-07T19:36:09;26.40;;;18.50;;
82744;SDS011;72484;50.004;14.356;2024-03-07T19:39:27;25.00;;;16.90;;
82744;SDS011;72484;50.004;14.356;2024-03-07T19:43:45;24.50;;;17.90;;
82744;SDS011;72484;50.004;14.356;2024-03-07T19:47:04;24.90;;;18.10;;
82744;SDS011;72484;50.004;14.356;2024-03-07T19:51:22;26.90;;;18.50;;
82744;SDS011;72484;50.004;14.356;2024-03-07T19:54:41;25.20;;;18.00;;
82744;SDS011;72484;50.004;14.356;2024-03-07T19:58:59;26.20;;;18.70;;
82744;SDS011;72484;50.004;14.356;2024-03-07T20:02:18;24.20;;;17.70;;
82744;SDS011;72484;50.004;14.356;2024-03-07T20:06:35;27.60;;;18.90;;
82744;SDS011;72484;50.004;14.356;2024-03-07T20:10:13;29.00;;;20.30;;
82744;SDS011;72484;50.004;14.356;2024-03-07T20:13:35;27.10;;;19.80;;
82744;SDS011;72484;50.004;14.356;2024-03-07T20:17:53;25.70;;;18.50;;
82744;SDS011;72484;50.004;14.356;2024-03-07T20:21:15;26.50;;;18.80;;
82744;SDS011;72484;50.004;14.356;2024-03-07T20:25:31;26.60;;;19.10;;
82744;SDS011;72484;50.004;14.356;2024-03-07T20:29:09;28.00;;;20.10;;
82744;SDS011;72484;50.004;14.356;2024-03-07T20:32:29;26.60;;;18.50;;
82744;SDS011;72484;50.004;14.356;2024-03-07T20:36:48;26.30;;;19.00;;
82744;SDS011;72484;50.004;14.356;2024-03-07T20:40:07;27.20;;;19.90;;
82744;SDS011;72484;50.004;14.356;2024-03-07T20:44:08;28.10;;;20.70;;
82744;SDS011;72484;50.004;14.356;2024-03-07T20:48:26;26.10;;;18.90;;
82744;SDS011;72484;50.004;14.356;2024-03-07T20:51:46;27.50;;;19.40;;
82744;SDS011;72484;50.004;14.356;2024-03-07T20:55:48;28.10;;;20.20;;
82744;SDS011;72484;50.004;14.356;2024-03-07T20:59:47;27.40;;;20.40;;
82744;SDS011;72484;50.004;14.356;2024-03-07T21:04:06;27.30;;;19.20;;
82744;SDS011;72484;50.004;14.356;2024-03-07T21:07:27;26.70;;;19.80;;
82744;SDS011;72484;50.004;14.356;2024-03-07T21:11:45;28.60;;;20.90;;
82744;SDS011;72484;50.004;14.356;2024-03-07T21:15:22;27.80;;;19.80;;
82744;SDS011;72484;50.004;14.356;2024-03-07T21:18:41;27.30;;;19.80;;
82744;SDS011;72484;50.004;14.356;2024-03-07T21:22:58;29.70;;;21.50;;
82744;SDS011;72484;50.004;14.356;2024-03-07T21:26:36;28.70;;;20.70;;
82744;SDS011;72484;50.004;14.356;2024-03-07T21:30:14;31.00;;;21.20;;
82744;SDS011;72484;50.004;14.356;2024-03-07T21:33:51;29.80;;;21.90;;
82744;SDS011;72484;50.004;14.356;2024-03-07T21:37:12;29.20;;;20.30;;
82744;SDS011;72484;50.004;14.356;2024-03-07T21:41:30;29.50;;;21.70;;
82744;SDS011;72484;50.004;14.356;2024-03-07T21:44:49;30.80;;;21.30;;
82744;SDS011;72484;50.004;14.356;2024-03-07T21:49:08;32.80;;;22.50;;
82744;SDS011;72484;50.004;14.356;2024-03-07T21:52:45;30.90;;;21.60;;
82744;SDS011;72484;50.004;14.356;2024-03-07T21:56:27;31.50;;;23.10;;
82744;SDS011;72484;50.004;14.356;2024-03-07T21:59:43;30.70;;;22.60;;
82744;SDS011;72484;50.004;14.356;2024-03-07T22:04:00;30.30;;;21.70;;